sensor_id;sensor_type;location;lat;lon;timestamp;pressure;altitude;pressure_sealevel;temperature;humidity
24390;BME280;12510;56.468;-3.004;2023-12-14T00:01:15;-10724.13;;;-148.32;nan
24390;BME280;12510;56.468;-3.004;2023-12-14T00:03:41;-9721.03;;;-148.32;nan
24390;BME280;12510;56.468;-3.004;2023-12-14T00:06:10;-10222.63;;;-148.32;nan
24390;BME280;12510;56.468;-3.004;2023-12-14T00:08:36;-10222.63;;;-148.32;nan
24390;BME280;12510;56.468;-3.004;2023-12-14T00:11:06;-9971.84;;;-148.32;nan
24390;BME280;12510;56.468;-3.004;2023-12-14T00:13:32;-10974.88;;;-148.32;nan
24390;BME280;12510;56.468;-3.004;2023-12-14T00:15:59;-10724.13;;;-148.32;nan
24390;BME280;12510;56.468;-3.004;2023-12-14T00:18:25;-10724.13;;;-148.32;nan
24390;BME280;12510;56.468;-3.004;2023-12-14T00:20:52;-11225.56;;;-148.32;nan
24390;BME280;12510;56.468;-3.004;2023-12-14T00:23:20;-5455.00;;;-148.32;nan
24390;BME280;12510;56.468;-3.004;2023-12-14T00:25:46;-1184.19;;;-148.32;nan
24390;BME280;12510;56.468;-3.004;2023-12-14T00:28:12;-7714.09;;;-148.32;nan
24390;BME280;12510;56.468;-3.004;2023-12-14T00:30:38;-8466.81;;;-148.32;nan
24390;BME280;12510;56.468;-3.004;2023-12-14T00:33:04;-932.81;;;-148.32;nan
24390;BME280;12510;56.468;-3.004;2023-12-14T00:35:30;-7212.19;;;-148.32;nan
24390;BME280;12510;56.468;-3.004;2023-12-14T00:37:57;-9470.22;;;-148.32;nan
24390;BME280;12510;56.468;-3.004;2023-12-14T00:40:23;-9470.22;;;-148.32;nan
24390;BME280;12510;56.468;-3.004;2023-12-14T00:42:49;-10473.38;;;-148.32;nan
24390;BME280;12510;56.468;-3.004;2023-12-14T00:45:15;-9470.22;;;-148.32;nan
24390;BME280;12510;56.468;-3.004;2023-12-14T00:47:41;-10974.88;;;-148.32;nan
24390;BME280;12510;56.468;-3.004;2023-12-14T00:50:07;-10473.38;;;-148.32;nan
24390;BME280;12510;56.468;-3.004;2023-12-14T00:52:34;-10473.38;;;-148.32;nan
24390;BME280;12510;56.468;-3.004;2023-12-14T00:55:00;-10473.38;;;-148.32;nan
24390;BME280;12510;56.468;-3.004;2023-12-14T00:57:26;-10473.38;;;-148.32;nan
24390;BME280;12510;56.468;-3.004;2023-12-14T00:59:52;-10222.63;;;-148.32;nan
24390;BME280;12510;56.468;-3.004;2023-12-14T01:02:18;-10222.63;;;-148.32;nan
24390;BME280;12510;56.468;-3.004;2023-12-14T01:04:44;-9971.84;;;-148.32;nan
24390;BME280;12510;56.468;-3.004;2023-12-14T01:07:10;-10974.88;;;-148.32;nan
24390;BME280;12510;56.468;-3.004;2023-12-14T01:09:37;-10473.38;;;-148.32;nan
24390;BME280;12510;56.468;-3.004;2023-12-14T01:12:03;-10222.63;;;-148.32;nan
24390;BME280;12510;56.468;-3.004;2023-12-14T01:14:29;-11726.97;;;-148.32;nan
24390;BME280;12510;56.468;-3.004;2023-12-14T01:16:55;-11476.28;;;-148.32;nan
24390;BME280;12510;56.468;-3.004;2023-12-14T01:19:21;-12729.53;;;-148.32;nan
24390;BME280;12510;56.468;-3.004;2023-12-14T01:21:47;-12478.91;;;-148.32;nan
24390;BME280;12510;56.468;-3.004;2023-12-14T01:24:13;-11225.56;;;-148.32;nan
24390;BME280;12510;56.468;-3.004;2023-12-14T01:26:40;-12228.28;;;-148.32;nan
24390;BME280;12510;56.468;-3.004;2023-12-14T01:29:06;-12228.28;;;-148.32;nan
24390;BME280;12510;56.468;-3.004;2023-12-14T01:31:32;-11977.63;;;-148.32;nan
24390;BME280;12510;56.468;-3.004;2023-12-14T01:33:58;-11476.28;;;-148.32;nan
24390;BME280;12510;56.468;-3.004;2023-12-14T01:36:25;-11476.28;;;-148.32;nan
24390;BME280;12510;56.468;-3.004;2023-12-14T01:38:51;-12478.91;;;-148.32;nan
24390;BME280;12510;56.468;-3.004;2023-12-14T01:41:18;-12228.28;;;-148.32;nan
24390;BME280;12510;56.468;-3.004;2023-12-14T01:43:44;-11977.63;;;-148.32;nan
24390;BME280;12510;56.468;-3.004;2023-12-14T01:46:10;-11726.97;;;-148.32;nan
24390;BME280;12510;56.468;-3.004;2023-12-14T01:48:36;-9219.41;;;-148.32;nan
24390;BME280;12510;56.468;-3.004;2023-12-14T01:51:03;-1184.19;;;-148.32;nan
24390;BME280;12510;56.468;-3.004;2023-12-14T01:53:29;-9219.41;;;-148.32;nan
24390;BME280;12510;56.468;-3.004;2023-12-14T01:55:55;-2440.81;;;-148.32;nan
24390;BME280;12510;56.468;-3.004;2023-12-14T01:58:21;-8717.69;;;-148.32;nan
24390;BME280;12510;56.468;-3.004;2023-12-14T02:03:14;-5455.00;;;-148.32;nan
24390;BME280;12510;56.468;-3.004;2023-12-14T02:05:40;-7965.00;;;-148.32;nan
24390;BME280;12510;56.468;-3.004;2023-12-14T02:08:07;-10724.13;;;-148.32;nan
24390;BME280;12510;56.468;-3.004;2023-12-14T02:10:34;-10724.13;;;-148.32;nan
24390;BME280;12510;56.468;-3.004;2023-12-14T02:13:01;-10473.38;;;-148.32;nan
24390;BME280;12510;56.468;-3.004;2023-12-14T02:15:27;-11476.28;;;-148.32;nan
24390;BME280;12510;56.468;-3.004;2023-12-14T02:17:53;-11476.28;;;-148.32;nan
24390;BME280;12510;56.468;-3.004;2023-12-14T02:20:19;-10473.38;;;-148.32;nan
24390;BME280;12510;56.468;-3.004;2023-12-14T02:22:52;-10724.13;;;-148.32;nan
24390;BME280;12510;56.468;-3.004;2023-12-14T02:25:19;-11476.28;;;-148.32;nan
24390;BME280;12510;56.468;-3.004;2023-12-14T02:27:45;1078.72;;;-148.32;nan
24390;BME280;12510;56.468;-3.004;2023-12-14T02:30:11;-1938.22;;;-148.32;nan
24390;BME280;12510;56.468;-3.004;2023-12-14T02:32:38;-8717.69;;;-148.32;nan
24390;BME280;12510;56.468;-3.004;2023-12-14T02:35:05;-10473.38;;;-148.32;nan
24390;BME280;12510;56.468;-3.004;2023-12-14T02:37:32;-11977.63;;;-148.32;nan
24390;BME280;12510;56.468;-3.004;2023-12-14T02:39:58;-11977.63;;;-148.32;nan
24390;BME280;12510;56.468;-3.004;2023-12-14T02:42:25;-12980.13;;;-148.32;nan
24390;BME280;12510;56.468;-3.004;2023-12-14T02:44:51;-7714.09;;;-148.32;nan
24390;BME280;12510;56.468;-3.004;2023-12-14T02:47:17;-3697.00;;;-148.32;nan
24390;BME280;12510;56.468;-3.004;2023-12-14T02:49:44;2336.50;;;-148.32;nan
24390;BME280;12510;56.468;-3.004;2023-12-14T02:52:10;-4450.53;;;-148.32;nan
24390;BME280;12510;56.468;-3.004;2023-12-14T02:54:38;-8968.56;;;-148.32;nan
24390;BME280;12510;56.468;-3.004;2023-12-14T02:57:04;-9971.84;;;-148.32;nan
24390;BME280;12510;56.468;-3.004;2023-12-14T02:59:30;-10473.38;;;-148.32;nan
24390;BME280;12510;56.468;-3.004;2023-12-14T03:01:57;-10974.88;;;-148.32;nan
24390;BME280;12510;56.468;-3.004;2023-12-14T03:04:23;-10724.13;;;-148.32;nan
24390;BME280;12510;56.468;-3.004;2023-12-14T03:06:50;-10724.13;;;-148.32;nan
24390;BME280;12510;56.468;-3.004;2023-12-14T03:09:16;-10724.13;;;-148.32;nan
24390;BME280;12510;56.468;-3.004;2023-12-14T03:11:42;-10724.13;;;-148.32;nan
24390;BME280;12510;56.468;-3.004;2023-12-14T03:14:08;-11225.56;;;-148.32;nan
24390;BME280;12510;56.468;-3.004;2023-12-14T03:16:34;-11476.28;;;-148.32;nan
24390;BME280;12510;56.468;-3.004;2023-12-14T03:19:01;-11726.97;;;-148.32;nan
24390;BME280;12510;56.468;-3.004;2023-12-14T03:21:27;-11977.63;;;-148.32;nan
24390;BME280;12510;56.468;-3.004;2023-12-14T03:23:54;-12228.28;;;-148.32;nan
24390;BME280;12510;56.468;-3.004;2023-12-14T03:26:20;-12980.13;;;-148.32;nan
24390;BME280;12510;56.468;-3.004;2023-12-14T03:28:46;-12478.91;;;-148.32;nan
24390;BME280;12510;56.468;-3.004;2023-12-14T03:31:12;-12228.28;;;-148.32;nan
24390;BME280;12510;56.468;-3.004;2023-12-14T03:33:42;-12228.28;;;-148.32;nan
24390;BME280;12510;56.468;-3.004;2023-12-14T03:36:08;-12729.53;;;-148.32;nan
24390;BME280;12510;56.468;-3.004;2023-12-14T03:38:34;-12478.91;;;-148.32;nan
24390;BME280;12510;56.468;-3.004;2023-12-14T03:41:00;-12228.28;;;-148.32;nan
24390;BME280;12510;56.468;-3.004;2023-12-14T03:43:27;-12478.91;;;-148.32;nan
24390;BME280;12510;56.468;-3.004;2023-12-14T03:45:53;-12228.28;;;-148.32;nan
24390;BME280;12510;56.468;-3.004;2023-12-14T03:48:19;-11977.63;;;-148.32;nan
24390;BME280;12510;56.468;-3.004;2023-12-14T03:50:45;-12478.91;;;-148.32;nan
24390;BME280;12510;56.468;-3.004;2023-12-14T03:53:11;-12478.91;;;-148.32;nan
24390;BME280;12510;56.468;-3.004;2023-12-14T03:55:37;-12980.13;;;-148.32;nan
24390;BME280;12510;56.468;-3.004;2023-12-14T03:58:04;-12729.53;;;-148.32;nan
24390;BME280;12510;56.468;-3.004;2023-12-14T04:00:30;-11977.63;;;-148.32;nan
24390;BME280;12510;56.468;-3.004;2023-12-14T04:02:56;-11726.97;;;-148.32;nan
24390;BME280;12510;56.468;-3.004;2023-12-14T04:05:22;-12478.91;;;-148.32;nan
24390;BME280;12510;56.468;-3.004;2023-12-14T04:07:48;-12729.53;;;-148.32;nan
24390;BME280;12510;56.468;-3.004;2023-12-14T04:10:14;-12478.91;;;-148.32;nan
24390;BME280;12510;56.468;-3.004;2023-12-14T04:12:41;-12478.91;;;-148.32;nan
24390;BME280;12510;56.468;-3.004;2023-12-14T04:15:07;-12478.91;;;-148.32;nan
24390;BME280;12510;56.468;-3.004;2023-12-14T04:17:34;-12228.28;;;-148.32;nan
24390;BME280;12510;56.468;-3.004;2023-12-14T04:20:01;-12478.91;;;-148.32;nan
24390;BME280;12510;56.468;-3.004;2023-12-14T04:22:28;-12980.13;;;-148.32;nan
24390;BME280;12510;56.468;-3.004;2023-12-14T04:24:54;-12980.13;;;-148.32;nan
24390;BME280;12510;56.468;-3.004;2023-12-14T04:27:21;-12729.53;;;-148.32;nan
24390;BME280;12510;56.468;-3.004;2023-12-14T04:29:50;-12478.91;;;-148.32;nan
24390;BME280;12510;56.468;-3.004;2023-12-14T04:32:16;-12228.28;;;-148.32;nan
24390;BME280;12510;56.468;-3.004;2023-12-14T04:34:42;-12478.91;;;-148.32;nan
24390;BME280;12510;56.468;-3.004;2023-12-14T04:37:08;-12478.91;;;-148.32;nan
24390;BME280;12510;56.468;-3.004;2023-12-14T04:39:34;-11977.63;;;-148.32;nan
24390;BME280;12510;56.468;-3.004;2023-12-14T04:42:01;-11977.63;;;-148.32;nan
24390;BME280;12510;56.468;-3.004;2023-12-14T04:44:27;-11726.97;;;-148.32;nan
24390;BME280;12510;56.468;-3.004;2023-12-14T04:46:53;-11476.28;;;-148.32;nan
24390;BME280;12510;56.468;-3.004;2023-12-14T04:49:19;-11476.28;;;-148.32;nan
24390;BME280;12510;56.468;-3.004;2023-12-14T04:51:45;-11225.56;;;-148.32;nan
24390;BME280;12510;56.468;-3.004;2023-12-14T04:54:12;-11225.56;;;-148.32;nan
24390;BME280;12510;56.468;-3.004;2023-12-14T04:56:38;-11726.97;;;-148.32;nan
24390;BME280;12510;56.468;-3.004;2023-12-14T04:59:04;-11977.63;;;-148.32;nan
24390;BME280;12510;56.468;-3.004;2023-12-14T05:01:30;-11726.97;;;-148.32;nan
24390;BME280;12510;56.468;-3.004;2023-12-14T05:03:56;-11726.97;;;-148.32;nan
24390;BME280;12510;56.468;-3.004;2023-12-14T05:06:22;-11726.97;;;-148.32;nan
24390;BME280;12510;56.468;-3.004;2023-12-14T05:08:48;-11726.97;;;-148.32;nan
24390;BME280;12510;56.468;-3.004;2023-12-14T05:11:14;-11726.97;;;-148.32;nan
24390;BME280;12510;56.468;-3.004;2023-12-14T05:13:40;-11476.28;;;-148.32;nan
24390;BME280;12510;56.468;-3.004;2023-12-14T05:16:07;-11225.56;;;-148.32;nan
24390;BME280;12510;56.468;-3.004;2023-12-14T05:18:38;-11476.28;;;-148.32;nan
24390;BME280;12510;56.468;-3.004;2023-12-14T05:21:04;-11225.56;;;-148.32;nan
24390;BME280;12510;56.468;-3.004;2023-12-14T05:23:30;-11225.56;;;-148.32;nan
24390;BME280;12510;56.468;-3.004;2023-12-14T05:25:56;-10974.88;;;-148.32;nan
24390;BME280;12510;56.468;-3.004;2023-12-14T05:28:23;-11225.56;;;-148.32;nan
24390;BME280;12510;56.468;-3.004;2023-12-14T05:30:49;-11225.56;;;-148.32;nan
24390;BME280;12510;56.468;-3.004;2023-12-14T05:33:15;-11225.56;;;-148.32;nan
24390;BME280;12510;56.468;-3.004;2023-12-14T05:35:41;-10974.88;;;-148.32;nan
24390;BME280;12510;56.468;-3.004;2023-12-14T05:38:07;-11225.56;;;-148.32;nan
24390;BME280;12510;56.468;-3.004;2023-12-14T05:40:33;-11977.63;;;-148.32;nan
24390;BME280;12510;56.468;-3.004;2023-12-14T05:43:00;-11726.97;;;-148.32;nan
24390;BME280;12510;56.468;-3.004;2023-12-14T05:45:26;-11476.28;;;-148.32;nan
24390;BME280;12510;56.468;-3.004;2023-12-14T05:47:52;-11726.97;;;-148.32;nan
24390;BME280;12510;56.468;-3.004;2023-12-14T05:50:18;-11726.97;;;-148.32;nan
24390;BME280;12510;56.468;-3.004;2023-12-14T05:52:44;-11977.63;;;-148.32;nan
24390;BME280;12510;56.468;-3.004;2023-12-14T05:55:11;-11977.63;;;-148.32;nan
24390;BME280;12510;56.468;-3.004;2023-12-14T05:57:37;-12478.91;;;-148.32;nan
24390;BME280;12510;56.468;-3.004;2023-12-14T06:00:04;-11977.63;;;-148.32;nan
24390;BME280;12510;56.468;-3.004;2023-12-14T06:02:31;-11476.28;;;-148.32;nan
24390;BME280;12510;56.468;-3.004;2023-12-14T06:04:58;-11476.28;;;-148.32;nan
24390;BME280;12510;56.468;-3.004;2023-12-14T06:07:24;-11726.97;;;-148.32;nan
24390;BME280;12510;56.468;-3.004;2023-12-14T06:09:50;-11977.63;;;-148.32;nan
24390;BME280;12510;56.468;-3.004;2023-12-14T06:12:17;-11977.63;;;-148.32;nan
24390;BME280;12510;56.468;-3.004;2023-12-14T06:14:43;-11726.97;;;-148.32;nan
24390;BME280;12510;56.468;-3.004;2023-12-14T06:17:10;-11726.97;;;-148.32;nan
24390;BME280;12510;56.468;-3.004;2023-12-14T06:19:37;-11476.28;;;-148.32;nan
24390;BME280;12510;56.468;-3.004;2023-12-14T06:22:03;-11476.28;;;-148.32;nan
24390;BME280;12510;56.468;-3.004;2023-12-14T06:24:29;-11726.97;;;-148.32;nan
24390;BME280;12510;56.468;-3.004;2023-12-14T06:26:55;-11476.28;;;-148.32;nan
24390;BME280;12510;56.468;-3.004;2023-12-14T06:29:21;-11476.28;;;-148.32;nan
24390;BME280;12510;56.468;-3.004;2023-12-14T06:31:47;-11977.63;;;-148.32;nan
24390;BME280;12510;56.468;-3.004;2023-12-14T06:34:13;-11977.63;;;-148.32;nan
24390;BME280;12510;56.468;-3.004;2023-12-14T06:36:43;-11726.97;;;-148.32;nan
24390;BME280;12510;56.468;-3.004;2023-12-14T06:39:10;-11726.97;;;-148.32;nan
24390;BME280;12510;56.468;-3.004;2023-12-14T06:41:36;-11476.28;;;-148.32;nan
24390;BME280;12510;56.468;-3.004;2023-12-14T06:44:02;-12228.28;;;-148.32;nan
24390;BME280;12510;56.468;-3.004;2023-12-14T06:46:29;-12478.91;;;-148.32;nan
24390;BME280;12510;56.468;-3.004;2023-12-14T06:48:55;-12228.28;;;-148.32;nan
24390;BME280;12510;56.468;-3.004;2023-12-14T06:51:22;-12228.28;;;-148.32;nan
24390;BME280;12510;56.468;-3.004;2023-12-14T06:53:48;-12478.91;;;-148.32;nan
24390;BME280;12510;56.468;-3.004;2023-12-14T06:56:14;-12980.13;;;-148.32;nan
24390;BME280;12510;56.468;-3.004;2023-12-14T06:58:41;-12980.13;;;-148.32;nan
24390;BME280;12510;56.468;-3.004;2023-12-14T07:01:14;-12478.91;;;-148.32;nan
24390;BME280;12510;56.468;-3.004;2023-12-14T07:03:41;-11726.97;;;-148.32;nan
24390;BME280;12510;56.468;-3.004;2023-12-14T07:06:07;-11225.56;;;-148.32;nan
24390;BME280;12510;56.468;-3.004;2023-12-14T07:08:38;-11225.56;;;-148.32;nan
24390;BME280;12510;56.468;-3.004;2023-12-14T07:11:04;-11726.97;;;-148.32;nan
24390;BME280;12510;56.468;-3.004;2023-12-14T07:13:30;-11977.63;;;-148.32;nan
24390;BME280;12510;56.468;-3.004;2023-12-14T07:15:57;-11726.97;;;-148.32;nan
24390;BME280;12510;56.468;-3.004;2023-12-14T07:18:23;-11476.28;;;-148.32;nan
24390;BME280;12510;56.468;-3.004;2023-12-14T07:20:49;-11225.56;;;-148.32;nan
24390;BME280;12510;56.468;-3.004;2023-12-14T07:23:15;-10473.38;;;-148.32;nan
24390;BME280;12510;56.468;-3.004;2023-12-14T07:25:41;-11225.56;;;-148.32;nan
24390;BME280;12510;56.468;-3.004;2023-12-14T07:28:08;-10473.38;;;-148.32;nan
24390;BME280;12510;56.468;-3.004;2023-12-14T07:30:35;-9721.03;;;-148.32;nan
24390;BME280;12510;56.468;-3.004;2023-12-14T07:33:01;-9219.41;;;-148.32;nan
24390;BME280;12510;56.468;-3.004;2023-12-14T07:35:27;-9721.03;;;-148.32;nan
24390;BME280;12510;56.468;-3.004;2023-12-14T07:37:54;-11225.56;;;-148.32;nan
24390;BME280;12510;56.468;-3.004;2023-12-14T07:40:20;-10724.13;;;-148.32;nan
24390;BME280;12510;56.468;-3.004;2023-12-14T07:42:46;-9971.84;;;-148.32;nan
24390;BME280;12510;56.468;-3.004;2023-12-14T07:45:12;-10473.38;;;-148.32;nan
24390;BME280;12510;56.468;-3.004;2023-12-14T07:47:39;-11225.56;;;-148.32;nan
24390;BME280;12510;56.468;-3.004;2023-12-14T07:50:05;-10222.63;;;-148.32;nan
24390;BME280;12510;56.468;-3.004;2023-12-14T07:52:31;-11225.56;;;-148.32;nan
24390;BME280;12510;56.468;-3.004;2023-12-14T07:54:57;-10473.38;;;-148.32;nan
24390;BME280;12510;56.468;-3.004;2023-12-14T07:57:24;-10974.88;;;-148.32;nan
24390;BME280;12510;56.468;-3.004;2023-12-14T07:59:50;-9470.22;;;-148.32;nan
24390;BME280;12510;56.468;-3.004;2023-12-14T08:02:16;-8968.56;;;-148.32;nan
24390;BME280;12510;56.468;-3.004;2023-12-14T08:04:42;-9721.03;;;-148.32;nan
24390;BME280;12510;56.468;-3.004;2023-12-14T08:07:08;-10222.63;;;-148.32;nan
24390;BME280;12510;56.468;-3.004;2023-12-14T08:09:34;-10473.38;;;-148.32;nan
24390;BME280;12510;56.468;-3.004;2023-12-14T08:12:00;-9721.03;;;-148.32;nan
24390;BME280;12510;56.468;-3.004;2023-12-14T08:14:27;-8717.69;;;-148.32;nan
24390;BME280;12510;56.468;-3.004;2023-12-14T08:16:53;-7965.00;;;-148.32;nan
24390;BME280;12510;56.468;-3.004;2023-12-14T08:19:19;-8215.91;;;-148.32;nan
24390;BME280;12510;56.468;-3.004;2023-12-14T08:21:45;-8215.91;;;-148.32;nan
24390;BME280;12510;56.468;-3.004;2023-12-14T08:24:11;-8215.91;;;-148.32;nan
24390;BME280;12510;56.468;-3.004;2023-12-14T08:26:38;-7965.00;;;-148.32;nan
24390;BME280;12510;56.468;-3.004;2023-12-14T08:29:04;-7965.00;;;-148.32;nan
24390;BME280;12510;56.468;-3.004;2023-12-14T08:31:30;-7714.09;;;-148.32;nan
24390;BME280;12510;56.468;-3.004;2023-12-14T08:33:56;-8215.91;;;-148.32;nan
24390;BME280;12510;56.468;-3.004;2023-12-14T08:36:22;-8215.91;;;-148.32;nan
24390;BME280;12510;56.468;-3.004;2023-12-14T08:38:48;-8215.91;;;-148.32;nan
24390;BME280;12510;56.468;-3.004;2023-12-14T08:41:15;-7965.00;;;-148.32;nan
24390;BME280;12510;56.468;-3.004;2023-12-14T08:43:41;-9219.41;;;-148.32;nan
24390;BME280;12510;56.468;-3.004;2023-12-14T08:46:07;-8717.69;;;-148.32;nan
24390;BME280;12510;56.468;-3.004;2023-12-14T08:48:33;-9721.03;;;-148.32;nan
24390;BME280;12510;56.468;-3.004;2023-12-14T08:51:01;-10222.63;;;-148.32;nan
24390;BME280;12510;56.468;-3.004;2023-12-14T08:53:27;-10473.38;;;-148.32;nan
24390;BME280;12510;56.468;-3.004;2023-12-14T08:55:55;-11977.63;;;-148.32;nan
24390;BME280;12510;56.468;-3.004;2023-12-14T08:58:21;-11726.97;;;-148.32;nan
24390;BME280;12510;56.468;-3.004;2023-12-14T09:00:48;-11225.56;;;-148.32;nan
24390;BME280;12510;56.468;-3.004;2023-12-14T09:03:18;-11977.63;;;-148.32;nan
24390;BME280;12510;56.468;-3.004;2023-12-14T09:05:45;-12228.28;;;-148.32;nan
24390;BME280;12510;56.468;-3.004;2023-12-14T09:08:11;-11977.63;;;-148.32;nan
24390;BME280;12510;56.468;-3.004;2023-12-14T09:10:38;-12228.28;;;-148.32;nan
24390;BME280;12510;56.468;-3.004;2023-12-14T09:13:04;-12228.28;;;-148.32;nan
24390;BME280;12510;56.468;-3.004;2023-12-14T09:15:31;-12478.91;;;-148.32;nan
24390;BME280;12510;56.468;-3.004;2023-12-14T09:17:57;-11726.97;;;-148.32;nan
24390;BME280;12510;56.468;-3.004;2023-12-14T09:20:23;-11476.28;;;-148.32;nan
24390;BME280;12510;56.468;-3.004;2023-12-14T09:22:50;-11726.97;;;-148.32;nan
24390;BME280;12510;56.468;-3.004;2023-12-14T09:25:16;-11726.97;;;-148.32;nan
24390;BME280;12510;56.468;-3.004;2023-12-14T09:27:42;-11726.97;;;-148.32;nan
24390;BME280;12510;56.468;-3.004;2023-12-14T09:30:08;-11726.97;;;-148.32;nan
24390;BME280;12510;56.468;-3.004;2023-12-14T09:32:35;-11726.97;;;-148.32;nan
24390;BME280;12510;56.468;-3.004;2023-12-14T09:35:01;-11476.28;;;-148.32;nan
24390;BME280;12510;56.468;-3.004;2023-12-14T09:37:27;-11225.56;;;-148.32;nan
24390;BME280;12510;56.468;-3.004;2023-12-14T09:39:54;-11225.56;;;-148.32;nan
24390;BME280;12510;56.468;-3.004;2023-12-14T09:42:20;-11726.97;;;-148.32;nan
24390;BME280;12510;56.468;-3.004;2023-12-14T09:44:47;-12228.28;;;-148.32;nan
24390;BME280;12510;56.468;-3.004;2023-12-14T09:47:14;-11977.63;;;-148.32;nan
24390;BME280;12510;56.468;-3.004;2023-12-14T09:49:41;-11476.28;;;-148.32;nan
24390;BME280;12510;56.468;-3.004;2023-12-14T09:52:11;-11726.97;;;-148.32;nan
24390;BME280;12510;56.468;-3.004;2023-12-14T09:54:38;-11726.97;;;-148.32;nan
24390;BME280;12510;56.468;-3.004;2023-12-14T09:57:04;-11225.56;;;-148.32;nan
24390;BME280;12510;56.468;-3.004;2023-12-14T09:59:30;-11225.56;;;-148.32;nan
24390;BME280;12510;56.468;-3.004;2023-12-14T10:02:08;-10724.13;;;-148.32;nan
24390;BME280;12510;56.468;-3.004;2023-12-14T10:04:35;-10974.88;;;-148.32;nan
24390;BME280;12510;56.468;-3.004;2023-12-14T10:07:01;-10724.13;;;-148.32;nan
24390;BME280;12510;56.468;-3.004;2023-12-14T10:09:33;-11225.56;;;-148.32;nan
24390;BME280;12510;56.468;-3.004;2023-12-14T10:12:03;-11225.56;;;-148.32;nan
24390;BME280;12510;56.468;-3.004;2023-12-14T10:14:30;-11476.28;;;-148.32;nan
24390;BME280;12510;56.468;-3.004;2023-12-14T10:16:56;-11977.63;;;-148.32;nan
24390;BME280;12510;56.468;-3.004;2023-12-14T10:19:22;-11977.63;;;-148.32;nan
24390;BME280;12510;56.468;-3.004;2023-12-14T10:21:49;-11726.97;;;-148.32;nan
24390;BME280;12510;56.468;-3.004;2023-12-14T10:24:16;-11225.56;;;-148.32;nan
24390;BME280;12510;56.468;-3.004;2023-12-14T10:26:45;-12729.53;;;-148.32;nan
24390;BME280;12510;56.468;-3.004;2023-12-14T10:29:11;-11726.97;;;-148.32;nan
24390;BME280;12510;56.468;-3.004;2023-12-14T10:31:37;-12228.28;;;-148.32;nan
24390;BME280;12510;56.468;-3.004;2023-12-14T10:34:04;-12478.91;;;-148.32;nan
24390;BME280;12510;56.468;-3.004;2023-12-14T10:36:31;-12228.28;;;-148.32;nan
24390;BME280;12510;56.468;-3.004;2023-12-14T10:38:59;-11726.97;;;-148.32;nan
24390;BME280;12510;56.468;-3.004;2023-12-14T10:41:28;-12228.28;;;-148.32;nan
24390;BME280;12510;56.468;-3.004;2023-12-14T10:43:57;-12228.28;;;-148.32;nan
24390;BME280;12510;56.468;-3.004;2023-12-14T10:46:25;-12478.91;;;-148.32;nan
24390;BME280;12510;56.468;-3.004;2023-12-14T10:48:53;-12228.28;;;-148.32;nan
24390;BME280;12510;56.468;-3.004;2023-12-14T10:51:23;-12228.28;;;-148.32;nan
24390;BME280;12510;56.468;-3.004;2023-12-14T10:53:49;-12980.13;;;-148.32;nan
24390;BME280;12510;56.468;-3.004;2023-12-14T10:56:17;-12729.53;;;-148.32;nan
24390;BME280;12510;56.468;-3.004;2023-12-14T10:58:55;-12478.91;;;-148.32;nan
24390;BME280;12510;56.468;-3.004;2023-12-14T11:01:22;-12729.53;;;-148.32;nan
24390;BME280;12510;56.468;-3.004;2023-12-14T11:03:52;-11977.63;;;-148.32;nan
24390;BME280;12510;56.468;-3.004;2023-12-14T11:06:25;-11977.63;;;-148.32;nan
24390;BME280;12510;56.468;-3.004;2023-12-14T11:09:06;-11977.63;;;-148.32;nan
24390;BME280;12510;56.468;-3.004;2023-12-14T11:11:42;-12228.28;;;-148.32;nan
24390;BME280;12510;56.468;-3.004;2023-12-14T11:14:11;-12228.28;;;-148.32;nan
24390;BME280;12510;56.468;-3.004;2023-12-14T11:16:44;-12228.28;;;-148.32;nan
24390;BME280;12510;56.468;-3.004;2023-12-14T11:21:44;-12729.53;;;-148.32;nan
24390;BME280;12510;56.468;-3.004;2023-12-14T11:24:10;-12228.28;;;-148.32;nan
24390;BME280;12510;56.468;-3.004;2023-12-14T11:26:38;-11977.63;;;-148.32;nan
24390;BME280;12510;56.468;-3.004;2023-12-14T11:29:04;-12228.28;;;-148.32;nan
24390;BME280;12510;56.468;-3.004;2023-12-14T11:31:31;-11225.56;;;-148.32;nan
24390;BME280;12510;56.468;-3.004;2023-12-14T11:34:01;-12729.53;;;-148.32;nan
24390;BME280;12510;56.468;-3.004;2023-12-14T11:36:29;-12729.53;;;-148.32;nan
24390;BME280;12510;56.468;-3.004;2023-12-14T11:38:55;-12478.91;;;-148.32;nan
24390;BME280;12510;56.468;-3.004;2023-12-14T11:41:21;-12729.53;;;-148.32;nan
24390;BME280;12510;56.468;-3.004;2023-12-14T11:43:47;-12729.53;;;-148.32;nan
24390;BME280;12510;56.468;-3.004;2023-12-14T11:46:14;-12729.53;;;-148.32;nan
24390;BME280;12510;56.468;-3.004;2023-12-14T11:48:43;-12228.28;;;-148.32;nan
24390;BME280;12510;56.468;-3.004;2023-12-14T11:51:10;-12478.91;;;-148.32;nan
24390;BME280;12510;56.468;-3.004;2023-12-14T11:53:36;-12478.91;;;-148.32;nan
24390;BME280;12510;56.468;-3.004;2023-12-14T11:56:05;-12478.91;;;-148.32;nan
24390;BME280;12510;56.468;-3.004;2023-12-14T11:58:32;-12729.53;;;-148.32;nan
24390;BME280;12510;56.468;-3.004;2023-12-14T12:01:17;-12478.91;;;-148.32;nan
24390;BME280;12510;56.468;-3.004;2023-12-14T12:03:44;-12729.53;;;-148.32;nan
24390;BME280;12510;56.468;-3.004;2023-12-14T12:06:23;-12981.59;;;-148.32;nan
24390;BME280;12510;56.468;-3.004;2023-12-14T12:08:50;-12981.59;;;-148.32;nan
24390;BME280;12510;56.468;-3.004;2023-12-14T12:11:20;-12980.13;;;-148.32;nan
24390;BME280;12510;56.468;-3.004;2023-12-14T12:13:54;-12981.59;;;-148.32;nan
24390;BME280;12510;56.468;-3.004;2023-12-14T12:16:20;-12981.59;;;-148.32;nan
24390;BME280;12510;56.468;-3.004;2023-12-14T12:18:47;-12981.59;;;-148.32;nan
24390;BME280;12510;56.468;-3.004;2023-12-14T12:21:13;-12981.59;;;-148.32;nan
24390;BME280;12510;56.468;-3.004;2023-12-14T12:23:39;-12980.13;;;-148.32;nan
24390;BME280;12510;56.468;-3.004;2023-12-14T12:26:07;-12981.59;;;-148.32;nan
24390;BME280;12510;56.468;-3.004;2023-12-14T12:28:34;-12981.59;;;-148.32;nan
24390;BME280;12510;56.468;-3.004;2023-12-14T12:31:00;-12981.59;;;-148.32;nan
24390;BME280;12510;56.468;-3.004;2023-12-14T12:33:26;-12981.59;;;-148.32;nan
24390;BME280;12510;56.468;-3.004;2023-12-14T12:35:52;-12981.59;;;-148.32;nan
24390;BME280;12510;56.468;-3.004;2023-12-14T12:38:18;-12981.59;;;-148.32;nan
24390;BME280;12510;56.468;-3.004;2023-12-14T12:40:45;-12980.13;;;-148.32;nan
24390;BME280;12510;56.468;-3.004;2023-12-14T12:43:12;-12981.59;;;-148.32;nan
24390;BME280;12510;56.468;-3.004;2023-12-14T12:45:38;-12981.59;;;-148.32;nan